Time;durP1;ratioP1;P1;durP2;ratioP2;P2;SDS_P1;SDS_P2;PMS_P1;PMS_P2;Temp;Humidity;BMP_temperature;BMP_pressure;BME280_temperature;BME280_humidity;BME280_pressure;Samples;Min_cycle;Max_cycle;Signal;HPM_P1;HPM_P2
2022/01/14 00:00:48;;;;;;;7.20;1.15;;;27.80;99.90;;;;;;5056025;28;20025;-73
2022/01/14 00:03:17;;;;;;;4.38;1.10;;;28.00;99.90;;;;;;5056099;28;20108;-74
2022/01/14 00:05:48;;;;;;;4.22;1.45;;;28.20;99.90;;;;;;5054972;28;20048;-75
2022/01/14 00:08:19;;;;;;;3.78;1.20;;;28.60;99.90;;;;;;5056286;28;20108;-74
2022/01/14 00:10:50;;;;;;;5.45;1.02;;;28.80;99.90;;;;;;5056022;28;20055;-75
2022/01/14 00:16:05;;;;;;;6.50;1.00;;;28.70;99.90;;;;;;5055920;28;20031;-74
2022/01/14 00:18:35;;;;;;;6.22;1.33;;;28.50;99.90;;;;;;5055384;28;20027;-75
2022/01/14 00:21:03;;;;;;;7.85;1.65;;;28.60;99.90;;;;;;5038068;28;20397;-76
2022/01/14 00:23:40;;;;;;;4.55;1.13;;;28.80;99.90;;;;;;5054729;28;20108;-75
2022/01/14 00:31:47;;;;;;;3.28;0.90;;;28.60;99.90;;;;;;5055786;28;20032;-73
2022/01/14 00:34:16;;;;;;;4.13;1.30;;;28.50;99.90;;;;;;5038636;28;20029;-73
2022/01/14 00:36:47;;;;;;;3.92;1.02;;;28.50;99.90;;;;;;5055026;28;20029;-74
2022/01/14 00:39:15;;;;;;;5.05;1.27;;;28.60;99.90;;;;;;5054204;28;20048;-73
2022/01/14 00:41:46;;;;;;;5.40;1.02;;;28.30;99.90;;;;;;5055387;28;20017;-73
2022/01/14 00:44:16;;;;;;;4.68;1.08;;;28.40;99.90;;;;;;5054983;28;20025;-74
2022/01/14 00:46:47;;;;;;;5.10;1.17;;;28.90;99.90;;;;;;5054070;28;20028;-75
2022/01/14 00:49:16;;;;;;;4.18;1.17;;;29.00;99.90;;;;;;5055322;28;20428;-75
2022/01/14 00:51:46;;;;;;;4.10;1.10;;;29.50;99.90;;;;;;5055189;28;20021;-75
2022/01/14 00:54:17;;;;;;;6.32;1.25;;;29.40;99.90;;;;;;5037265;28;20033;-75
2022/01/14 00:57:01;;;;;;;4.75;0.93;;;29.10;99.90;;;;;;5037658;28;20078;-75
2022/01/14 00:59:29;;;;;;;3.92;1.20;;;29.00;99.90;;;;;;5039735;28;20029;-74
2022/01/14 01:02:01;;;;;;;5.13;1.23;;;28.50;99.90;;;;;;5055141;28;20021;-74
2022/01/14 01:04:38;;;;;;;5.95;1.38;;;28.30;99.90;;;;;;5053605;28;20057;-75
2022/01/14 01:07:14;;;;;;;6.88;1.10;;;28.80;99.90;;;;;;5053833;28;20033;-75
2022/01/14 01:09:47;;;;;;;5.60;1.30;;;29.00;99.90;;;;;;5053756;28;20021;-75
2022/01/14 01:12:33;;;;;;;5.00;1.05;;;29.50;99.90;;;;;;5053394;28;20025;-75
2022/01/14 01:15:09;;;;;;;5.30;1.35;;;29.50;99.90;;;;;;5053726;28;20075;-75
2022/01/14 01:17:37;;;;;;;4.53;1.25;;;30.10;99.90;;;;;;5037759;28;20052;-75
2022/01/14 01:20:17;;;;;;;5.55;1.42;;;29.90;99.90;;;;;;5053593;28;20064;-75
2022/01/14 01:22:49;;;;;;;5.35;1.05;;;29.40;99.90;;;;;;5053246;28;20488;-75
2022/01/14 01:25:24;;;;;;;6.55;1.25;;;29.40;99.90;;;;;;5054353;28;20029;-73
2022/01/14 01:27:54;;;;;;;3.65;1.00;;;29.40;99.90;;;;;;5053018;28;20025;-75
2022/01/14 01:33:00;;;;;;;6.00;1.20;;;29.80;99.90;;;;;;5054220;28;19913;-75
2022/01/14 01:35:28;;;;;;;4.32;1.42;;;29.70;99.90;;;;;;5052682;28;20162;-73
2022/01/14 01:37:55;;;;;;;4.60;1.40;;;29.90;99.90;;;;;;5054314;28;20036;-73
2022/01/14 01:40:25;;;;;;;5.40;1.45;;;30.10;99.90;;;;;;5053224;28;20025;-74
2022/01/14 01:43:02;;;;;;;4.28;1.23;;;29.80;99.90;;;;;;5054225;28;20033;-73
2022/01/14 01:45:31;;;;;;;4.50;1.27;;;30.20;99.90;;;;;;5054340;28;20021;-73
2022/01/14 01:47:58;;;;;;;4.20;1.08;;;30.30;99.90;;;;;;5052819;28;20494;-73
2022/01/14 01:50:32;;;;;;;4.22;1.05;;;29.90;99.90;;;;;;5052925;28;20024;-73
2022/01/14 01:53:00;;;;;;;6.00;1.63;;;29.80;99.90;;;;;;5054059;28;20029;-75
2022/01/14 01:55:30;;;;;;;7.63;1.63;;;30.10;99.90;;;;;;5052026;28;20048;-73
2022/01/14 01:57:58;;;;;;;3.30;0.70;;;30.30;99.90;;;;;;5053900;28;20018;-72
2022/01/14 02:00:29;;;;;;;3.80;0.98;;;30.50;99.90;;;;;;5052436;28;20108;-74
2022/01/14 02:02:58;;;;;;;5.00;1.35;;;30.20;99.90;;;;;;5052822;28;20037;-74
2022/01/14 02:05:25;;;;;;;4.50;1.20;;;30.60;99.90;;;;;;5053702;28;20047;-74
2022/01/14 02:07:54;;;;;;;5.95;1.20;;;30.50;99.90;;;;;;5053767;28;20020;-74
2022/01/14 02:10:23;;;;;;;6.40;1.40;;;30.20;99.90;;;;;;5052371;28;20527;-74
2022/01/14 02:12:53;;;;;;;3.60;0.88;;;29.90;99.90;;;;;;5053569;28;20079;-74
2022/01/14 02:18:31;;;;;;;8.77;1.63;;;29.60;99.90;;;;;;5053895;28;20052;-74
2022/01/14 02:23:55;;;;;;;5.50;1.30;;;30.00;99.90;;;;;;5052540;28;20574;-74
2022/01/14 02:26:24;;;;;;;4.03;0.98;;;30.00;99.90;;;;;;5036581;28;20124;-73
2022/01/14 02:28:53;;;;;;;5.60;1.20;;;30.00;99.90;;;;;;5051832;28;20052;-74
2022/01/14 02:31:20;;;;;;;4.53;1.25;;;29.60;99.90;;;;;;5053551;28;20488;-76
2022/01/14 02:33:48;;;;;;;5.60;1.23;;;29.30;99.90;;;;;;5053342;28;20112;-74
2022/01/14 02:36:16;;;;;;;3.30;0.88;;;29.70;99.90;;;;;;5053304;28;20017;-74
2022/01/14 02:38:45;;;;;;;4.55;1.30;;;29.80;99.90;;;;;;5053273;28;20096;-74
2022/01/14 02:41:13;;;;;;;5.22;1.40;;;29.60;99.90;;;;;;5052980;28;20017;-76
2022/01/14 02:43:40;;;;;;;4.20;1.20;;;29.90;99.90;;;;;;5052010;28;20375;-73
2022/01/14 02:46:08;;;;;;;4.47;1.52;;;30.00;99.90;;;;;;5053085;28;20017;-74
2022/01/14 02:48:36;;;;;;;4.10;1.30;;;30.30;99.90;;;;;;5051833;28;20117;-75
2022/01/14 02:51:14;;;;;;;5.30;1.85;;;30.20;99.90;;;;;;5053023;28;20033;-76
2022/01/14 02:53:56;;;;;;;6.13;1.23;;;30.00;99.90;;;;;;5051920;28;20040;-75
2022/01/14 02:56:31;;;;;;;6.97;1.45;;;30.00;99.90;;;;;;5053190;28;20024;-75
2022/01/14 02:59:00;;;;;;;4.75;1.23;;;30.00;99.90;;;;;;5051896;28;20028;-74
2022/01/14 03:01:28;;;;;;;5.18;1.20;;;30.10;99.90;;;;;;5053085;28;20052;-74
2022/01/14 03:03:58;;;;;;;6.75;1.80;;;29.70;99.90;;;;;;5051382;28;20055;-74
2022/01/14 03:06:26;;;;;;;5.77;1.70;;;29.70;99.90;;;;;;5051632;28;20036;-74
2022/01/14 03:08:54;;;;;;;7.43;2.08;;;30.10;99.90;;;;;;5051581;28;20262;-72
2022/01/14 03:11:32;;;;;;;5.45;1.48;;;30.30;99.90;;;;;;5052878;28;20059;-73
2022/01/14 03:14:01;;;;;;;5.25;1.60;;;29.70;99.90;;;;;;5052841;28;20033;-73
2022/01/14 03:16:37;;;;;;;8.07;1.98;;;29.60;99.90;;;;;;5051618;28;20029;-74
2022/01/14 03:19:09;;;;;;;6.38;1.50;;;29.60;99.90;;;;;;5053039;28;20013;-74
2022/01/14 03:21:41;;;;;;;6.45;1.70;;;30.10;99.90;;;;;;5053019;28;20044;-74
2022/01/14 03:25:36;;;;;;;5.88;1.40;;;30.50;99.90;;;;;;5052914;28;20507;-73
2022/01/14 03:27:10;;;;;;;9.50;1.90;;;30.70;99.90;;;;;;5052855;28;20029;-73
2022/01/14 03:29:37;;;;;;;6.55;1.73;;;30.60;99.90;;;;;;5052944;28;20075;-75
2022/01/14 03:32:05;;;;;;;5.95;1.80;;;30.60;99.90;;;;;;5051593;28;20106;-74
2022/01/14 03:34:33;;;;;;;3.42;1.42;;;30.80;99.90;;;;;;5052745;28;20017;-74
2022/01/14 03:37:01;;;;;;;6.68;1.60;;;30.80;99.90;;;;;;5051371;28;20436;-75
2022/01/14 03:39:29;;;;;;;6.47;1.58;;;30.80;99.90;;;;;;5051566;28;20040;-73
2022/01/14 03:41:57;;;;;;;6.30;1.33;;;31.10;99.90;;;;;;5051518;28;20033;-74
2022/01/14 03:44:24;;;;;;;5.53;1.45;;;31.20;99.90;;;;;;5051483;28;20508;-74
2022/01/14 03:46:53;;;;;;;5.53;1.52;;;31.30;99.90;;;;;;5052581;28;20473;-74
2022/01/14 03:49:20;;;;;;;11.70;1.45;;;31.60;99.90;;;;;;5051338;28;20025;-74
2022/01/14 03:51:47;;;;;;;8.38;1.85;;;31.60;99.90;;;;;;5052556;28;20028;-74
2022/01/14 03:54:15;;;;;;;5.50;1.70;;;31.00;99.90;;;;;;5056256;28;20103;-73
2022/01/14 03:56:42;;;;;;;4.18;1.20;;;30.30;99.90;;;;;;5054933;28;20032;-73
2022/01/14 03:59:10;;;;;;;4.35;1.20;;;30.30;99.90;;;;;;5056297;28;20358;-74
2022/01/14 04:01:37;;;;;;;5.93;1.50;;;30.20;99.90;;;;;;5056240;28;20053;-74
2022/01/14 04:04:05;;;;;;;9.18;2.05;;;30.30;99.90;;;;;;5054694;28;20132;-73
2022/01/14 04:06:32;;;;;;;5.68;1.33;;;30.00;99.90;;;;;;5055899;28;20465;-74
2022/01/14 04:08:59;;;;;;;5.35;1.45;;;29.70;99.90;;;;;;5054668;28;20025;-72
2022/01/14 04:11:29;;;;;;;3.83;1.30;;;29.40;99.90;;;;;;5055843;28;20025;-73
2022/01/14 04:14:07;;;;;;;5.37;1.30;;;29.50;99.90;;;;;;5055704;28;20494;-73
2022/01/14 04:16:34;;;;;;;4.78;1.10;;;30.10;99.90;;;;;;5054567;28;20302;-74
2022/01/14 04:19:01;;;;;;;8.25;1.42;;;30.30;99.90;;;;;;5055718;28;20017;-74
2022/01/14 04:21:29;;;;;;;6.63;1.75;;;30.50;99.90;;;;;;5055839;28;20481;-74
2022/01/14 04:23:56;;;;;;;6.07;1.20;;;30.60;99.90;;;;;;5038111;28;20032;-74
2022/01/14 04:26:24;;;;;;;8.57;1.60;;;30.70;99.90;;;;;;5055745;28;20032;-75
2022/01/14 04:28:51;;;;;;;6.72;1.40;;;30.50;99.90;;;;;;5054313;28;20041;-74
2022/01/14 04:31:19;;;;;;;6.88;1.50;;;30.40;99.90;;;;;;5055649;28;20082;-73
2022/01/14 04:33:46;;;;;;;4.95;1.50;;;30.20;99.90;;;;;;5054224;28;20116;-74
2022/01/14 04:36:13;;;;;;;6.07;1.42;;;30.30;99.90;;;;;;5055646;28;20029;-73
2022/01/14 04:38:41;;;;;;;6.60;1.40;;;30.50;99.90;;;;;;5055411;28;20331;-72
2022/01/14 04:41:09;;;;;;;7.32;1.50;;;30.80;99.90;;;;;;5054230;28;20032;-74
2022/01/14 04:43:37;;;;;;;4.70;1.30;;;31.00;99.90;;;;;;5055198;28;20024;-73
2022/01/14 04:48:38;;;;;;;5.03;1.42;;;31.40;99.90;;;;;;5055455;28;20108;-74
2022/01/14 04:51:10;;;;;;;6.05;1.48;;;31.60;99.90;;;;;;5054074;28;20021;-73
2022/01/14 04:53:39;;;;;;;4.03;1.20;;;31.00;99.90;;;;;;5055215;28;20025;-73
2022/01/14 04:56:07;;;;;;;3.45;0.85;;;30.70;99.90;;;;;;5055322;28;20032;-73
2022/01/14 04:58:35;;;;;;;6.32;1.23;;;30.40;99.90;;;;;;5053866;28;20116;-73
2022/01/14 05:01:03;;;;;;;6.20;1.55;;;29.70;99.90;;;;;;5053869;28;20041;-73
2022/01/14 05:03:31;;;;;;;4.78;1.40;;;29.40;99.90;;;;;;5053388;28;20136;-74
2022/01/14 05:06:00;;;;;;;4.97;1.27;;;29.00;99.90;;;;;;5037390;28;20037;-73
2022/01/14 05:08:36;;;;;;;4.73;0.90;;;28.80;99.90;;;;;;5055047;28;20432;-73
2022/01/14 05:11:37;;;;;;;7.70;1.70;;;28.60;99.90;;;;;;5054954;28;20089;-72
2022/01/14 05:13:52;;;;;;;2.90;1.17;;;28.50;99.90;;;;;;5054727;28;20041;-72
2022/01/14 05:16:19;;;;;;;5.57;1.10;;;28.20;99.90;;;;;;5053503;28;20107;-72
2022/01/14 05:18:47;;;;;;;5.70;1.15;;;28.20;99.90;;;;;;5053491;28;20048;-73
2022/01/14 05:21:14;;;;;;;4.30;1.02;;;28.00;99.90;;;;;;5054650;28;20385;-73
2022/01/14 05:23:42;;;;;;;5.70;1.25;;;27.90;99.90;;;;;;5054680;28;20118;-73
2022/01/14 05:26:11;;;;;;;6.30;1.60;;;27.80;99.90;;;;;;5054644;28;20025;-73
2022/01/14 05:28:38;;;;;;;6.38;1.85;;;27.80;99.90;;;;;;5054481;28;20393;-73
2022/01/14 05:31:06;;;;;;;5.07;1.40;;;27.60;99.90;;;;;;5054479;28;20025;-70
2022/01/14 05:33:33;;;;;;;4.40;1.10;;;27.60;99.90;;;;;;5054331;28;20017;-74
2022/01/14 05:36:01;;;;;;;6.10;1.40;;;27.40;99.90;;;;;;5052990;28;20063;-72
2022/01/14 05:38:29;;;;;;;6.85;1.40;;;27.20;99.90;;;;;;5053045;28;20119;-72
2022/01/14 05:40:57;;;;;;;4.63;1.08;;;27.00;99.90;;;;;;5053071;28;20367;-72
2022/01/14 05:43:24;;;;;;;6.82;1.52;;;26.90;99.90;;;;;;5054281;28;20113;-71
2022/01/14 05:45:51;;;;;;;10.13;2.30;;;26.90;99.90;;;;;;5052843;28;20032;-72
2022/01/14 05:48:19;;;;;;;6.32;1.20;;;26.80;99.90;;;;;;5053788;28;20452;-72
2022/01/14 05:50:46;;;;;;;8.77;1.90;;;26.70;99.90;;;;;;5052831;28;20116;-72
2022/01/14 05:53:13;;;;;;;10.25;1.55;;;26.50;99.90;;;;;;5053996;28;20049;-72
2022/01/14 05:55:41;;;;;;;9.90;2.00;;;26.40;99.90;;;;;;5052859;28;20104;-72
2022/01/14 05:58:08;;;;;;;8.45;1.50;;;26.30;99.90;;;;;;5054078;28;20029;-72
2022/01/14 06:00:35;;;;;;;7.00;1.40;;;26.40;99.90;;;;;;5053861;28;20028;-73
2022/01/14 06:03:03;;;;;;;10.57;2.03;;;26.30;99.90;;;;;;5053922;28;20103;-72
2022/01/14 06:05:31;;;;;;;9.38;1.85;;;26.30;99.90;;;;;;5053741;28;20490;-71
2022/01/14 06:07:58;;;;;;;8.40;2.00;;;26.30;99.90;;;;;;5052443;28;20120;-70
2022/01/14 06:10:25;;;;;;;8.30;2.05;;;26.30;99.90;;;;;;5053580;28;20036;-70
2022/01/14 06:12:53;;;;;;;11.65;1.80;;;26.30;99.90;;;;;;5053586;28;20033;-72
2022/01/14 06:15:20;;;;;;;8.15;2.53;;;26.30;99.90;;;;;;5051845;28;20021;-70
2022/01/14 06:17:47;;;;;;;8.25;2.00;;;26.10;99.90;;;;;;5053562;28;20055;-71
2022/01/14 06:20:15;;;;;;;11.85;2.53;;;26.10;99.90;;;;;;5052232;28;20029;-71
2022/01/14 06:22:42;;;;;;;9.55;1.88;;;26.10;99.90;;;;;;5053435;28;20100;-72
2022/01/14 06:25:10;;;;;;;10.75;2.00;;;26.00;99.90;;;;;;5053244;28;20021;-71
2022/01/14 06:27:37;;;;;;;12.20;2.33;;;26.00;99.90;;;;;;5052004;28;20116;-71
2022/01/14 06:30:06;;;;;;;8.13;1.60;;;26.00;99.90;;;;;;5053324;28;20082;-72
2022/01/14 06:32:41;;;;;;;10.60;2.38;;;26.00;99.90;;;;;;5053083;28;20436;-72
2022/01/14 06:35:10;;;;;;;6.85;1.92;;;25.90;99.90;;;;;;5053116;28;20383;-71
2022/01/14 06:37:38;;;;;;;15.32;3.13;;;26.00;99.90;;;;;;5052924;28;20021;-72
2022/01/14 06:40:07;;;;;;;10.13;2.63;;;25.90;99.90;;;;;;5052979;28;20091;-72
2022/01/14 06:42:35;;;;;;;10.07;2.37;;;25.90;99.90;;;;;;5053121;28;20022;-71
2022/01/14 06:45:04;;;;;;;9.27;1.52;;;26.00;99.90;;;;;;5051733;28;20029;-71
2022/01/14 06:47:32;;;;;;;8.25;2.28;;;25.90;99.90;;;;;;5052982;28;20025;-72
2022/01/14 06:50:01;;;;;;;10.52;2.42;;;26.00;99.90;;;;;;5053128;28;20492;-71
2022/01/14 06:52:28;;;;;;;7.95;2.33;;;26.20;99.90;;;;;;5052764;28;20029;-70
2022/01/14 06:54:56;;;;;;;14.15;2.10;;;26.20;99.90;;;;;;5053000;28;20074;-72
2022/01/14 06:57:24;;;;;;;9.10;2.28;;;26.20;99.90;;;;;;5052747;28;20087;-71
2022/01/14 06:59:52;;;;;;;13.18;1.95;;;26.20;99.90;;;;;;5052614;28;20071;-72
2022/01/14 07:02:19;;;;;;;10.80;2.40;;;26.10;99.90;;;;;;5034856;28;20029;-72
2022/01/14 07:04:49;;;;;;;10.23;1.73;;;26.00;99.90;;;;;;5052347;28;20119;-72
2022/01/14 07:07:17;;;;;;;9.40;1.92;;;26.00;99.90;;;;;;5052662;28;20063;-70
2022/01/14 07:09:57;;;;;;;9.63;2.35;;;25.90;99.90;;;;;;5052533;28;20433;-72
2022/01/14 07:12:30;;;;;;;;;;;25.90;99.90;;;;;;5052958;28;20028;-71
2022/01/14 07:14:58;;;;;;;10.50;2.13;;;25.80;99.90;;;;;;5051193;28;20397;-72
2022/01/14 07:17:28;;;;;;;11.27;2.15;;;25.70;99.90;;;;;;5052595;28;20029;-73
2022/01/14 07:20:00;;;;;;;11.30;2.13;;;25.80;99.90;;;;;;5051596;28;20021;-72
2022/01/14 07:22:31;;;;;;;10.88;2.33;;;25.80;99.90;;;;;;5053171;28;20482;-70
2022/01/14 07:24:59;;;;;;;10.02;2.08;;;26.20;99.90;;;;;;5051345;28;20091;-71
2022/01/14 07:27:27;;;;;;;13.20;1.98;;;26.20;99.90;;;;;;5052706;28;20111;-72
2022/01/14 07:29:55;;;;;;;10.95;2.60;;;26.30;99.90;;;;;;5056766;28;20021;-71
2022/01/14 07:32:23;;;;;;;12.95;3.00;;;26.80;99.90;;;;;;5056428;28;20096;-71
2022/01/14 07:34:50;;;;;;;11.77;2.65;;;27.10;99.90;;;;;;5056634;28;20040;-71
2022/01/14 07:37:18;;;;;;;8.80;2.13;;;27.00;99.90;;;;;;5056536;28;20024;-73
2022/01/14 07:39:46;;;;;;;12.05;2.80;;;27.00;99.90;;;;;;5055221;28;20029;-71
2022/01/14 07:42:14;;;;;;;19.60;5.47;;;26.90;99.90;;;;;;5056483;28;20048;-72
2022/01/14 07:44:42;;;;;;;43.63;16.35;;;26.70;99.90;;;;;;5055075;28;20482;-71
2022/01/14 07:47:10;;;;;;;30.73;12.02;;;26.60;99.90;;;;;;5056368;28;20029;-78
2022/01/14 07:49:37;;;;;;;63.88;26.67;;;26.60;99.90;;;;;;5056525;28;20374;-72
2022/01/14 07:52:05;;;;;;;57.53;23.63;;;26.50;99.90;;;;;;5055066;28;20561;-72
2022/01/14 07:54:34;;;;;;;16.83;6.82;;;26.50;99.90;;;;;;5054827;28;20397;-71
2022/01/14 07:57:02;;;;;;;18.60;6.05;;;26.40;99.90;;;;;;5054995;28;20108;-72
2022/01/14 07:59:33;;;;;;;47.95;23.45;;;26.30;99.90;;;;;;5056077;28;20051;-72
2022/01/14 08:02:01;;;;;;;63.95;38.20;;;26.20;99.90;;;;;;5056237;28;20031;-70
2022/01/14 08:04:32;;;;;;;30.58;15.63;;;26.10;99.90;;;;;;5055842;28;20064;-72
2022/01/14 08:07:08;;;;;;;15.32;5.45;;;26.10;99.90;;;;;;5054692;28;20072;-73
2022/01/14 08:09:37;;;;;;;12.43;3.75;;;25.90;99.90;;;;;;5056018;28;20053;-72
2022/01/14 08:12:06;;;;;;;27.00;15.30;;;25.90;99.90;;;;;;5055991;28;20035;-72
2022/01/14 08:14:35;;;;;;;54.20;39.15;;;25.80;99.90;;;;;;5055921;28;20137;-72
2022/01/14 08:17:02;;;;;;;33.85;22.52;;;25.80;99.90;;;;;;5055906;28;20028;-72
2022/01/14 08:19:33;;;;;;;19.45;11.85;;;25.70;99.90;;;;;;5055875;28;20592;-72
2022/01/14 08:22:02;;;;;;;22.42;14.45;;;25.70;99.90;;;;;;5054584;28;20021;-73
2022/01/14 08:24:31;;;;;;;18.15;7.70;;;25.60;99.90;;;;;;5055537;28;20020;-72
2022/01/14 08:26:58;;;;;;;17.75;7.75;;;25.50;99.90;;;;;;5055671;28;20094;-72
2022/01/14 08:29:30;;;;;;;11.70;2.88;;;25.40;99.90;;;;;;5054334;28;20117;-72
2022/01/14 08:31:57;;;;;;;11.80;2.78;;;25.30;99.90;;;;;;5054246;28;20025;-72
2022/01/14 08:34:25;;;;;;;12.23;2.70;;;25.20;99.90;;;;;;5055328;28;20110;-70
2022/01/14 08:36:52;;;;;;;13.80;2.55;;;25.20;99.90;;;;;;5055657;28;20101;-72
2022/01/14 08:39:20;;;;;;;10.07;2.63;;;25.10;99.90;;;;;;5053507;28;20021;-72
2022/01/14 08:41:48;;;;;;;9.98;2.25;;;25.00;99.90;;;;;;5055348;28;20044;-71
2022/01/14 08:44:15;;;;;;;11.73;2.92;;;25.00;99.90;;;;;;5054139;28;20036;-71
2022/01/14 08:46:43;;;;;;;14.10;2.60;;;24.90;99.90;;;;;;5055230;28;20025;-72
2022/01/14 08:49:11;;;;;;;10.05;2.60;;;24.80;99.90;;;;;;5055283;28;20422;-73
2022/01/14 08:51:39;;;;;;;12.95;3.13;;;24.80;99.90;;;;;;5055298;28;20024;-71
2022/01/14 08:54:08;;;;;;;11.68;2.97;;;24.80;99.90;;;;;;5053875;28;20539;-72
2022/01/14 08:56:36;;;;;;;15.15;3.33;;;24.80;99.90;;;;;;5055252;28;20025;-72
2022/01/14 08:59:04;;;;;;;12.95;3.03;;;24.80;99.90;;;;;;5055313;28;20422;-73
2022/01/14 09:01:32;;;;;;;12.95;3.50;;;24.80;99.90;;;;;;5055303;28;20075;-73
2022/01/14 09:04:01;;;;;;;10.15;2.58;;;24.70;99.90;;;;;;5053445;28;20102;-73
2022/01/14 09:06:29;;;;;;;15.57;2.60;;;24.70;99.90;;;;;;5054953;28;20479;-74
2022/01/14 09:08:57;;;;;;;13.15;3.15;;;24.60;99.90;;;;;;5054981;28;20139;-73
2022/01/14 09:11:24;;;;;;;11.60;2.67;;;24.60;99.90;;;;;;5053581;28;20120;-73
2022/01/14 09:13:52;;;;;;;11.93;2.35;;;24.60;99.90;;;;;;5054789;28;20061;-75
2022/01/14 09:16:20;;;;;;;13.27;2.80;;;24.50;99.90;;;;;;5054760;28;20056;-73
2022/01/14 09:18:48;;;;;;;12.20;2.42;;;24.50;99.90;;;;;;5054723;28;20036;-74
2022/01/14 09:21:19;;;;;;;12.55;2.90;;;24.50;99.90;;;;;;5054857;28;20447;-75
2022/01/14 09:24:08;;;;;;;12.45;2.40;;;24.40;99.90;;;;;;5054979;28;20053;-73
2022/01/14 09:26:38;;;;;;;10.63;2.47;;;24.30;99.90;;;;;;5054813;28;20021;-75
2022/01/14 09:29:08;;;;;;;13.05;2.85;;;24.30;99.90;;;;;;5053418;28;20170;-73
2022/01/14 09:31:36;;;;;;;15.68;2.65;;;24.30;99.90;;;;;;5053265;28;20533;-72
2022/01/14 09:34:03;;;;;;;8.43;2.25;;;24.20;99.90;;;;;;5054534;28;20017;-73
2022/01/14 09:36:31;;;;;;;10.43;3.08;;;24.20;99.90;;;;;;5053082;28;20438;-72
2022/01/14 09:38:59;;;;;;;13.15;2.92;;;24.10;99.90;;;;;;5054368;28;20020;-72
2022/01/14 09:41:26;;;;;;;11.13;3.03;;;24.10;99.90;;;;;;5052917;28;20438;-73
2022/01/14 09:43:55;;;;;;;13.50;3.13;;;24.10;99.90;;;;;;5054237;28;20043;-71
2022/01/14 09:46:23;;;;;;;13.35;2.90;;;24.00;99.90;;;;;;5054331;28;20017;-73
2022/01/14 09:48:50;;;;;;;17.00;3.15;;;24.00;99.90;;;;;;5054727;28;20334;-75
2022/01/14 09:51:19;;;;;;;16.08;2.88;;;23.90;99.90;;;;;;5052113;28;20303;-73
2022/01/14 09:53:47;;;;;;;12.57;3.15;;;23.90;99.90;;;;;;5054341;28;20025;-72
2022/01/14 09:56:18;;;;;;;12.48;3.30;;;23.90;99.90;;;;;;5053048;28;20029;-74
2022/01/14 09:58:48;;;;;;;13.80;3.13;;;23.80;99.90;;;;;;5053993;28;20075;-74
2022/01/14 10:01:19;;;;;;;8.98;2.78;;;23.80;99.90;;;;;;5054027;28;20051;-74
2022/01/14 10:04:04;;;;;;;10.10;2.50;;;23.80;99.90;;;;;;5053908;28;20040;-74
2022/01/14 10:06:45;;;;;;;17.30;3.10;;;23.70;99.90;;;;;;5052892;28;20044;-73
2022/01/14 10:09:16;;;;;;;13.82;3.03;;;23.70;99.90;;;;;;5053802;28;20101;-74
2022/01/14 10:11:58;;;;;;;16.23;3.20;;;23.70;99.90;;;;;;5054014;28;20036;-73
2022/01/14 10:14:25;;;;;;;14.23;3.58;;;23.70;99.90;;;;;;5052470;28;20035;-73
2022/01/14 10:16:57;;;;;;;15.48;3.55;;;23.60;99.90;;;;;;5053549;28;20052;-73
2022/01/14 10:19:31;;;;;;;22.02;4.25;;;23.60;99.90;;;;;;5053592;28;20032;-73
2022/01/14 10:21:58;;;;;;;13.60;3.60;;;23.60;99.90;;;;;;5052353;28;20021;-71
2022/01/14 10:24:31;;;;;;;18.00;3.75;;;23.50;99.90;;;;;;5053485;28;20126;-74
2022/01/14 10:27:03;;;;;;;23.10;4.03;;;23.50;99.90;;;;;;5053681;28;20450;-72
2022/01/14 10:29:33;;;;;;;18.95;3.47;;;23.50;99.90;;;;;;5036656;28;20048;-73
2022/01/14 10:32:06;;;;;;;15.65;3.72;;;23.50;99.90;;;;;;5053340;28;20508;-73
2022/01/14 10:34:35;;;;;;;18.75;3.92;;;23.40;99.90;;;;;;5051904;28;20025;-74
2022/01/14 10:37:15;;;;;;;16.08;3.47;;;23.40;99.90;;;;;;5053432;28;20021;-72
2022/01/14 10:39:54;;;;;;;18.30;4.40;;;23.40;99.90;;;;;;5053475;28;20017;-74
2022/01/14 10:42:26;;;;;;;21.65;3.97;;;23.40;99.90;;;;;;5036298;28;20052;-74
2022/01/14 10:44:55;;;;;;;23.77;5.13;;;23.30;99.90;;;;;;5053364;28;20028;-74
2022/01/14 10:47:26;;;;;;;24.13;4.95;;;23.30;99.90;;;;;;5053250;28;20029;-72
2022/01/14 10:49:59;;;;;;;18.55;4.43;;;23.30;99.90;;;;;;5053254;28;20028;-73
2022/01/14 10:52:28;;;;;;;19.60;4.15;;;23.30;99.90;;;;;;5053045;28;20449;-73
2022/01/14 10:54:58;;;;;;;21.90;4.85;;;23.20;99.90;;;;;;5051869;28;20025;-74
2022/01/14 10:57:32;;;;;;;21.97;4.77;;;23.20;99.90;;;;;;5053185;28;20071;-73
2022/01/14 11:00:20;;;;;;;22.40;5.00;;;23.10;99.90;;;;;;5051964;28;20017;-74
2022/01/14 11:02:52;;;;;;;20.67;4.50;;;23.10;99.90;;;;;;5051569;28;20028;-74
2022/01/14 11:05:24;;;;;;;22.77;4.50;;;23.10;99.90;;;;;;5052880;28;20029;-73
2022/01/14 11:07:52;;;;;;;22.48;5.13;;;23.10;99.90;;;;;;5052939;28;20049;-75
2022/01/14 11:10:20;;;;;;;17.67;3.75;;;23.00;99.90;;;;;;5051752;28;20033;-75
2022/01/14 11:12:49;;;;;;;17.65;4.22;;;23.00;99.90;;;;;;5053054;28;20071;-75
2022/01/14 11:15:18;;;;;;;20.67;4.50;;;22.90;99.90;;;;;;5053196;28;20017;-73
2022/01/14 11:17:50;;;;;;;22.92;4.78;;;22.90;99.90;;;;;;5052771;28;20020;-74
2022/01/14 11:23:14;;;;;;;21.63;4.55;;;22.90;99.90;;;;;;5052886;28;20025;-73
2022/01/14 11:23:21;;;;;;;16.73;4.32;;;22.90;99.90;;;;;;5052863;28;20025;-74
2022/01/14 11:26:00;;;;;;;26.75;4.80;;;22.90;99.90;;;;;;5052982;28;20420;-73
2022/01/14 11:28:33;;;;;;;21.77;5.10;;;22.90;99.90;;;;;;5051761;28;20110;-73
2022/01/14 11:31:01;;;;;;;17.88;4.07;;;22.90;99.90;;;;;;5053024;28;20029;-73
2022/01/14 11:33:44;;;;;;;20.55;4.80;;;22.90;99.90;;;;;;5052853;28;20040;-74
2022/01/14 11:36:11;;;;;;;25.48;5.53;;;22.80;99.90;;;;;;5051723;28;20021;-73
2022/01/14 11:38:40;;;;;;;19.15;4.80;;;22.80;99.90;;;;;;5051560;28;20040;-74
2022/01/14 11:41:10;;;;;;;25.17;4.70;;;22.80;99.90;;;;;;5052793;28;20025;-73
2022/01/14 11:43:40;;;;;;;21.73;4.78;;;22.80;99.90;;;;;;5052874;28;20075;-73
2022/01/14 11:46:11;;;;;;;29.80;4.95;;;22.80;99.90;;;;;;5051544;28;20112;-74
2022/01/14 11:48:46;;;;;;;19.08;5.47;;;22.70;99.90;;;;;;5052920;28;20033;-74
2022/01/14 11:51:18;;;;;;;21.45;4.55;;;22.80;99.90;;;;;;5035822;28;20040;-75
2022/01/14 11:53:54;;;;;;;22.60;6.22;;;22.70;99.90;;;;;;5052660;28;20028;-74
2022/01/14 11:56:34;;;;;;;19.58;4.20;;;22.70;99.90;;;;;;5052608;28;20024;-74
2022/01/14 11:59:22;;;;;;;18.27;5.00;;;22.60;99.90;;;;;;5052749;28;20023;-74
2022/01/14 12:01:50;;;;;;;27.13;5.97;;;;;;;;;;5052843;28;20041;-73
2022/01/14 12:04:18;;;;;;;20.45;5.30;;;;;;;;;;5052355;28;20533;-74
2022/01/14 12:07:05;;;;;;;25.50;5.45;;;;;;;;;;5051368;28;20025;-73
2022/01/14 12:09:52;;;;;;;21.75;5.40;;;;;;;;;;5052603;28;20027;-73
2022/01/14 12:12:31;;;;;;;20.13;4.90;;;;;;;;;;5052429;28;20429;-74
2022/01/14 12:15:02;;;;;;;24.83;4.90;;;;;;;;;;5056052;28;20037;-74
2022/01/14 12:17:28;;;;;;;;;;;;;;;;;;5056651;28;20025;-73
2022/01/14 12:19:55;;;;;;;25.92;5.72;;;;;;;;;;5056078;28;19956;-73
2022/01/14 12:22:23;;;;;;;27.48;4.72;;;;;;;;;;5054774;28;20489;-74
2022/01/14 12:24:52;;;;;;;25.63;6.05;;;;;;;;;;5056193;28;20445;-73
2022/01/14 12:27:21;;;;;;;21.83;5.50;;;;;;;;;;5056225;28;20064;-74
2022/01/14 12:29:48;;;;;;;29.00;6.93;;;;;;;;;;5055837;28;20033;-72
2022/01/14 12:32:15;;;;;;;20.90;5.28;;;;;;;;;;5055902;28;20056;-74
2022/01/14 12:34:46;;;;;;;26.05;5.55;;;;;;;;;;5054502;28;20024;-74
2022/01/14 12:37:22;;;;;;;26.45;5.63;;;;;;;;;;5056006;28;20013;-73
2022/01/14 12:39:50;;;;;;;20.77;5.13;;;;;;;;;;5055741;28;20017;-74
2022/01/14 12:42:19;;;;;;;21.90;5.28;;;;;;;;;;5055673;28;20067;-74
2022/01/14 12:44:47;;;;;;;24.52;5.70;;;;;;;;;;5054310;28;20025;-74
2022/01/14 12:47:21;;;;;;;19.45;5.05;;;;;;;;;;5054393;28;20033;-74
2022/01/14 12:49:48;;;;;;;23.20;5.95;;;;;;;;;;5055725;28;20482;-75
2022/01/14 12:52:23;;;;;;;20.90;5.28;;;;;;;;;;5055548;28;20432;-73
2022/01/14 12:54:50;;;;;;;22.20;5.22;;;;;;;;;;5054197;28;20094;-73
2022/01/14 12:57:18;;;;;;;20.55;5.53;;;;;;;;;;5054155;28;20025;-74
2022/01/14 12:59:50;;;;;;;20.95;6.38;;;;;;;;;;5053916;28;20096;-74
2022/01/14 13:02:17;;;;;;;24.30;4.95;;;;;;;;;;5055336;28;20096;-73
2022/01/14 13:04:44;;;;;;;18.13;5.22;;;;;;;;;;5053868;28;20041;-73
2022/01/14 13:07:16;;;;;;;22.35;4.60;;;;;;;;;;5055212;28;20478;-73
2022/01/14 13:09:44;;;;;;;20.88;4.80;;;;;;;;;;5055270;28;20025;-73
2022/01/14 13:12:16;;;;;;;20.30;4.90;;;;;;;;;;5053930;28;20021;-74
2022/01/14 13:15:05;;;;;;;25.80;5.82;;;;;;;;;;5055168;28;20021;-73
2022/01/14 13:17:31;;;;;;;18.38;4.43;;;;;;;;;;5054695;28;20035;-74
2022/01/14 13:20:04;;;;;;;21.52;5.00;;;;;;;;;;5053582;28;20098;-74
2022/01/14 13:22:34;;;;;;;15.05;5.25;;;;;;;;;;5054892;28;20386;-74
2022/01/14 13:25:04;;;;;;;14.52;4.22;;;;;;;;;;5053640;28;20397;-74
2022/01/14 13:27:32;;;;;;;19.67;4.97;;;;;;;;;;5053590;28;20029;-73